Hauptseite
METAR-TAF:

METAR-TAF

Flughäfen :

Verkehrslandeplatz Mönchengladbach

Mönchengladbach, Deutschland

Breite: 51-13-49N, Länge: 006-30-16E, Höhe: 38 m

Beobachtung

Neuester Wetterbericht von vor 15 Minuten, um 23:20 UTC
Wind 3 kt aus Nordost
Temperatur 10°C
Luftfeuchtigkeit 71%
Luftdruck 1022 hPa
Sichtweite 10 km oder mehr

METAR: EDLN 302320Z AUTO 04003KT 9999 // NCD 10/05 Q1022

Zeit: 01:35 (23:35 UTC)

Prognose

Neuester Wetterbericht von vor 6 Stunden und 35 Minuten, um 17:00 UTC
Gültige Prognose vom 30 um 18 UTC bis 31 um 03 UTC
Wind 9 kt aus Ost/Nordost
Sichtweite 10 km oder mehr
keine Wolken unter 1500 m und keine Kumulonimbus oder Gewitterwolken
Übergehend zu
vom 30 um 19 UTC bis 30 um 21 UTC
Wind 4 kt aus Nordost

TAF: EDLN 301700Z 3018/3103 06009KT CAVOK BECMG 3019/3021 05004KT

Wetterbeobachtungen und Prognosen von mehr als 4000 Flughäfen (METAR und TAF Bericht).

Die verfügbaren Stationen werden durch gelbe und rote Markierungen auf der Karte dargestellt.

Führen Sie die Maus auf sie, um den Namen der Station zu sehen.

Darauf klicken, um die Beobachtung von Wetterbeobachtungen und Prognosen zu sehen.

Um die Karte zu ändern : klicken Sie auf den grünen Tasten mit einem schwarzen Kreuz Zum Vergrößern, auf den grünen Button mit einem Gedankenstrich zu verkleinern, oder auf die grünen Pfeile für benachbarte Karten.


METAR-TAF: